Time;durP1;ratioP1;P1;durP2;ratioP2;P2;SDS_P1;SDS_P2;PMS_P1;PMS_P2;Temp;Humidity;BMP_temperature;BMP_pressure;BME280_temperature;BME280_humidity;BME280_pressure;Samples;Min_cycle;Max_cycle;Signal;HPM_P1;HPM_P2
2023/10/07 00:00:59;;;;;;;21.58;6.43;;;16.20;99.90;;;;;;7374047;19;20022;-66
2023/10/07 00:03:25;;;;;;;19.52;6.95;;;16.20;99.90;;;;;;7372054;19;20026;-66
2023/10/07 00:06:00;;;;;;;16.33;5.88;;;16.20;99.90;;;;;;7373890;19;20024;-68
2023/10/07 00:08:28;;;;;;;19.60;6.20;;;16.30;99.90;;;;;;7370519;19;20011;-68
2023/10/07 00:10:58;;;;;;;18.75;5.70;;;16.30;99.90;;;;;;7372036;19;20078;-67
2023/10/07 00:13:30;;;;;;;17.02;5.75;;;16.30;99.90;;;;;;7371549;19;20022;-67
2023/10/07 00:15:59;;;;;;;22.75;6.38;;;16.30;99.90;;;;;;7368027;19;21129;-68
2023/10/07 00:18:26;;;;;;;23.02;6.32;;;16.30;99.90;;;;;;7372463;19;20019;-68
2023/10/07 00:20:56;;;;;;;20.08;6.25;;;16.30;99.90;;;;;;7374017;19;20014;-66
2023/10/07 00:23:28;;;;;;;18.20;5.72;;;16.30;99.90;;;;;;7372131;19;20488;-66
2023/10/07 00:25:56;;;;;;;18.27;5.90;;;16.30;99.90;;;;;;7375497;19;20088;-66
2023/10/07 00:28:32;;;;;;;18.88;6.10;;;16.30;99.90;;;;;;7373456;19;20076;-68
2023/10/07 00:31:03;;;;;;;15.13;5.60;;;16.30;99.90;;;;;;7374966;19;20042;-67
2023/10/07 00:33:45;;;;;;;17.25;5.80;;;16.30;99.90;;;;;;7375368;19;20478;-68
2023/10/07 00:36:11;;;;;;;20.02;7.28;;;16.30;99.90;;;;;;7374971;19;20022;-68
2023/10/07 00:38:43;;;;;;;23.83;6.07;;;16.30;99.90;;;;;;7379590;19;20022;-68
2023/10/07 00:41:15;;;;;;;21.20;6.18;;;16.40;99.90;;;;;;7378444;19;20018;-68
2023/10/07 00:43:42;;;;;;;20.08;6.00;;;16.30;99.90;;;;;;7381993;19;20021;-67
2023/10/07 00:46:20;;;;;;;18.13;6.03;;;16.40;99.90;;;;;;7376006;19;20049;-69
2023/10/07 00:48:53;;;;;;;16.83;6.15;;;16.40;99.90;;;;;;7381993;19;20022;-67
2023/10/07 00:51:33;;;;;;;15.38;4.90;;;16.40;99.90;;;;;;7372379;19;20026;-68
2023/10/07 00:54:01;;;;;;;23.58;6.80;;;16.40;99.90;;;;;;7379680;19;20023;-68
2023/10/07 00:56:42;;;;;;;18.92;5.78;;;16.40;99.90;;;;;;7371988;19;20055;-68
2023/10/07 00:59:09;;;;;;;15.00;5.30;;;16.50;99.90;;;;;;7379227;19;20524;-68
2023/10/07 01:01:36;;;;;;;18.75;6.05;;;16.50;99.90;;;;;;7376893;19;20021;-68
2023/10/07 01:04:06;;;;;;;14.15;5.53;;;16.50;99.90;;;;;;7376464;19;20602;-68
2023/10/07 01:06:38;;;;;;;16.30;6.03;;;16.50;99.90;;;;;;7375794;19;20022;-68
2023/10/07 01:09:22;;;;;;;16.58;5.60;;;16.50;99.90;;;;;;7370888;19;20033;-67
2023/10/07 01:11:57;;;;;;;18.48;5.53;;;16.50;99.90;;;;;;7377546;19;20018;-67
2023/10/07 01:14:27;;;;;;;15.85;5.65;;;16.60;99.90;;;;;;7376542;19;20018;-67
2023/10/07 01:16:54;;;;;;;22.33;6.32;;;16.60;99.90;;;;;;7370015;19;20078;-67
2023/10/07 01:19:35;;;;;;;18.30;6.13;;;16.60;99.90;;;;;;7379584;19;20039;-67
2023/10/07 01:22:12;;;;;;;16.00;6.45;;;16.60;99.90;;;;;;7379653;19;20018;-67
2023/10/07 01:27:10;;;;;;;14.90;6.25;;;16.60;99.90;;;;;;7374098;19;20108;-68
2023/10/07 01:29:37;;;;;;;16.55;6.18;;;16.50;99.90;;;;;;7378555;19;20019;-67
2023/10/07 01:32:12;;;;;;;20.02;6.22;;;16.50;99.90;;;;;;7376601;19;20014;-68
2023/10/07 01:34:38;;;;;;;16.08;6.55;;;16.50;99.90;;;;;;7379212;19;20623;-67
2023/10/07 01:37:05;;;;;;;19.58;6.60;;;16.50;99.90;;;;;;7368568;19;20127;-67
2023/10/07 01:39:31;;;;;;;13.93;5.60;;;16.50;99.90;;;;;;7374220;19;20458;-67
2023/10/07 01:42:01;;;;;;;21.58;7.18;;;16.50;99.90;;;;;;7375390;19;20026;-67
2023/10/07 01:44:31;;;;;;;20.05;7.97;;;16.50;99.90;;;;;;7373992;19;20019;-67
2023/10/07 01:46:58;;;;;;;15.23;5.63;;;16.50;99.90;;;;;;7375016;19;20021;-68
2023/10/07 01:49:24;;;;;;;16.00;6.35;;;16.60;99.90;;;;;;7378398;19;20026;-68
2023/10/07 01:51:53;;;;;;;13.32;5.82;;;16.60;99.90;;;;;;7374143;19;20018;-68
2023/10/07 01:54:24;;;;;;;24.92;6.35;;;16.60;99.90;;;;;;7375940;19;20022;-67
2023/10/07 01:56:52;;;;;;;13.05;5.47;;;16.60;99.90;;;;;;7375418;19;20516;-67
2023/10/07 01:59:18;;;;;;;19.05;6.45;;;16.60;99.90;;;;;;7374351;19;20026;-67
2023/10/07 02:02:05;;;;;;;18.95;6.57;;;16.70;99.90;;;;;;7373010;19;20046;-67
2023/10/07 02:04:32;;;;;;;18.15;6.15;;;16.60;99.90;;;;;;7374764;19;20040;-68
2023/10/07 02:06:58;;;;;;;19.95;6.32;;;16.70;99.90;;;;;;7377975;19;20026;-67
2023/10/07 02:09:26;;;;;;;16.23;5.10;;;16.70;99.90;;;;;;7370252;19;20107;-68
2023/10/07 02:11:54;;;;;;;27.20;6.82;;;16.70;99.90;;;;;;7376713;19;20029;-68
2023/10/07 02:14:24;;;;;;;18.63;6.40;;;16.70;99.90;;;;;;7366839;19;20023;-66
2023/10/07 02:16:52;;;;;;;22.48;6.57;;;16.80;99.90;;;;;;7374553;19;20509;-66
2023/10/07 02:19:27;;;;;;;14.10;5.65;;;16.80;99.90;;;;;;7376753;19;20728;-67
2023/10/07 02:21:59;;;;;;;13.38;5.85;;;16.80;99.90;;;;;;7377254;19;20011;-66
2023/10/07 02:24:30;;;;;;;17.90;6.05;;;16.80;99.90;;;;;;7372848;19;20030;-66
2023/10/07 02:27:16;;;;;;;20.25;6.38;;;16.80;99.90;;;;;;7366598;19;20026;-67
2023/10/07 02:29:48;;;;;;;19.95;6.30;;;16.80;99.90;;;;;;7375491;19;20038;-66
2023/10/07 02:32:17;;;;;;;13.63;5.45;;;16.90;99.90;;;;;;7372699;19;20815;-66
2023/10/07 02:34:51;;;;;;;17.50;5.85;;;16.90;99.90;;;;;;7375292;19;20019;-66
2023/10/07 02:37:21;;;;;;;15.73;5.82;;;16.90;99.90;;;;;;7375739;19;20058;-67
2023/10/07 02:39:54;;;;;;;16.95;6.45;;;16.90;99.90;;;;;;7369235;19;20018;-67
2023/10/07 02:42:24;;;;;;;16.95;6.38;;;16.90;99.90;;;;;;7371513;19;20018;-67
2023/10/07 02:45:01;;;;;;;15.52;5.95;;;16.90;99.90;;;;;;7374047;19;20011;-68
2023/10/07 02:47:33;;;;;;;15.00;5.20;;;16.90;99.90;;;;;;7372677;19;20982;-68
2023/10/07 02:50:02;;;;;;;20.45;6.57;;;16.90;99.90;;;;;;7371972;19;20021;-68
2023/10/07 02:52:36;;;;;;;13.23;5.70;;;17.00;99.90;;;;;;7374351;19;20715;-68
2023/10/07 02:57:55;;;;;;;17.25;5.90;;;17.00;99.90;;;;;;7374763;19;20018;-68
2023/10/07 03:00:38;;;;;;;13.73;5.15;;;17.00;99.90;;;;;;7374669;19;20081;-68
2023/10/07 03:05:44;;;;;;;20.30;6.72;;;17.10;99.90;;;;;;7371123;19;20090;-68
2023/10/07 03:08:19;;;;;;;16.40;6.28;;;17.10;99.90;;;;;;7370549;19;20109;-68
2023/10/07 03:11:09;;;;;;;18.48;5.53;;;17.10;99.90;;;;;;7375174;19;20065;-68
2023/10/07 03:13:38;;;;;;;19.70;6.20;;;17.10;99.90;;;;;;7370710;19;20617;-66
2023/10/07 03:24:10;;;;;;;14.30;6.18;;;17.00;99.90;;;;;;7374605;19;20018;-65
2023/10/07 03:26:41;;;;;;;18.88;6.68;;;17.10;99.90;;;;;;7374794;19;20482;-67
2023/10/07 03:29:07;;;;;;;15.40;6.35;;;17.00;99.90;;;;;;7375241;19;20382;-68
2023/10/07 03:31:39;;;;;;;15.60;6.53;;;17.10;99.90;;;;;;7370590;19;20026;-67
2023/10/07 03:34:10;;;;;;;;;;;17.00;99.90;;;;;;7373644;19;20362;-68
2023/10/07 03:39:42;;;;;;;13.18;5.95;;;17.10;99.90;;;;;;7373795;19;20113;-67
2023/10/07 03:42:09;;;;;;;18.20;5.93;;;17.00;99.90;;;;;;7375366;19;20023;-68
2023/10/07 03:44:37;;;;;;;13.77;5.82;;;17.10;99.90;;;;;;7367294;19;20022;-68
2023/10/07 03:47:03;;;;;;;20.30;5.82;;;17.10;99.90;;;;;;7373437;19;20023;-66
2023/10/07 03:49:39;;;;;;;19.13;5.68;;;17.10;99.90;;;;;;7370913;19;20442;-66
2023/10/07 03:52:07;;;;;;;14.48;5.90;;;17.10;99.90;;;;;;7372319;19;20026;-66
2023/10/07 03:54:35;;;;;;;16.48;5.95;;;17.10;99.90;;;;;;7371578;19;20027;-66
2023/10/07 03:57:01;;;;;;;20.40;5.53;;;17.10;99.90;;;;;;7370005;19;20022;-66
2023/10/07 03:59:31;;;;;;;18.10;5.63;;;17.20;99.90;;;;;;7372238;19;20093;-66
2023/10/07 04:01:58;;;;;;;16.70;5.70;;;17.10;99.90;;;;;;7372354;19;20500;-66
2023/10/07 04:04:25;;;;;;;19.52;6.03;;;17.20;99.90;;;;;;7368916;19;20038;-67
2023/10/07 04:06:52;;;;;;;14.50;6.25;;;17.20;99.90;;;;;;7375470;19;20035;-69
2023/10/07 04:09:25;;;;;;;13.55;5.57;;;17.20;99.90;;;;;;7360837;19;20018;-68
2023/10/07 04:11:52;;;;;;;18.00;6.00;;;17.20;99.90;;;;;;7372654;19;20026;-69
2023/10/07 04:14:31;;;;;;;17.17;5.38;;;17.20;99.90;;;;;;7371059;19;20010;-68
2023/10/07 04:17:11;;;;;;;14.75;5.10;;;17.20;99.90;;;;;;7367168;19;20125;-68
2023/10/07 04:19:42;;;;;;;15.38;5.93;;;17.20;99.90;;;;;;7366722;19;20028;-68
2023/10/07 04:22:09;;;;;;;12.63;5.68;;;17.20;99.90;;;;;;7371526;19;20033;-67
2023/10/07 04:24:38;;;;;;;18.58;5.95;;;17.20;99.90;;;;;;7370955;19;21087;-66
2023/10/07 04:27:05;;;;;;;16.00;5.93;;;17.20;99.90;;;;;;7372842;19;20022;-67
2023/10/07 04:29:33;;;;;;;18.15;6.55;;;17.30;99.90;;;;;;7370067;19;20019;-66
2023/10/07 04:32:11;;;;;;;16.45;6.05;;;17.20;99.90;;;;;;7374153;19;20034;-66
2023/10/07 04:34:48;;;;;;;19.02;6.57;;;17.30;99.90;;;;;;7370932;19;20046;-68
2023/10/07 04:37:18;;;;;;;14.10;5.32;;;17.30;99.90;;;;;;7371448;19;20021;-66
2023/10/07 04:42:22;;;;;;;16.38;5.65;;;17.30;99.90;;;;;;7376343;19;20030;-66
2023/10/07 04:50:14;;;;;;;15.25;5.10;;;17.30;99.90;;;;;;7371355;19;20022;-66
2023/10/07 04:52:42;;;;;;;15.23;5.22;;;17.20;99.90;;;;;;7370622;19;20026;-65
2023/10/07 04:55:19;;;;;;;16.52;5.57;;;17.20;99.90;;;;;;7373600;19;20022;-67
2023/10/07 05:02:59;;;;;;;16.00;4.85;;;17.20;99.90;;;;;;7369414;19;20026;-67
2023/10/07 05:05:30;;;;;;;16.00;5.65;;;17.20;99.90;;;;;;7369388;19;20022;-66
2023/10/07 05:08:17;;;;;;;15.93;5.68;;;17.20;99.90;;;;;;7361009;19;20014;-67
2023/10/07 05:10:52;;;;;;;23.05;7.13;;;17.20;99.90;;;;;;7366446;19;20025;-67
2023/10/07 05:13:19;;;;;;;13.90;5.25;;;17.20;99.90;;;;;;7371754;19;20023;-67
2023/10/07 05:15:45;;;;;;;18.63;5.70;;;17.20;99.90;;;;;;7365504;19;20370;-68
2023/10/07 05:18:17;;;;;;;15.50;5.53;;;17.20;99.90;;;;;;7374365;19;20391;-66
2023/10/07 05:20:46;;;;;;;16.17;6.15;;;17.20;99.90;;;;;;7371195;19;21648;-67
2023/10/07 05:23:14;;;;;;;16.30;5.80;;;17.20;99.90;;;;;;7373591;19;20437;-66
2023/10/07 05:25:48;;;;;;;17.58;5.43;;;17.20;99.90;;;;;;7372184;19;20107;-68
2023/10/07 05:28:20;;;;;;;17.33;5.82;;;17.20;99.90;;;;;;7376112;19;20370;-67
2023/10/07 05:30:51;;;;;;;22.50;5.70;;;17.20;99.90;;;;;;7373688;19;20029;-68
2023/10/07 05:33:25;;;;;;;22.92;5.75;;;17.20;99.90;;;;;;7373812;19;20858;-68
2023/10/07 05:36:03;;;;;;;15.95;5.47;;;17.20;99.90;;;;;;7371481;19;20023;-66
2023/10/07 05:38:30;;;;;;;15.48;5.32;;;17.20;99.90;;;;;;7376389;19;20081;-66
2023/10/07 05:41:00;;;;;;;19.38;6.20;;;17.20;99.90;;;;;;7376637;19;20054;-63
2023/10/07 05:43:31;;;;;;;18.35;5.07;;;17.20;99.90;;;;;;7372180;19;20019;-68
2023/10/07 05:45:58;;;;;;;15.73;6.25;;;17.20;99.90;;;;;;7374072;19;20019;-68
2023/10/07 05:48:25;;;;;;;21.48;5.75;;;17.20;99.90;;;;;;7370358;19;20022;-67
2023/10/07 05:50:55;;;;;;;16.85;5.90;;;17.20;99.90;;;;;;7376396;19;20078;-67
2023/10/07 05:53:21;;;;;;;17.73;5.57;;;17.20;99.90;;;;;;7376884;19;20129;-66
2023/10/07 05:55:48;;;;;;;18.75;5.93;;;17.20;99.90;;;;;;7380239;19;20391;-66
2023/10/07 05:58:14;;;;;;;17.98;5.70;;;17.20;99.90;;;;;;7378193;19;20014;-67
2023/10/07 06:00:41;;;;;;;16.40;5.80;;;17.20;99.90;;;;;;7375820;19;20022;-67
2023/10/07 06:03:08;;;;;;;16.20;5.30;;;17.20;99.90;;;;;;7378765;19;20026;-66
2023/10/07 06:05:37;;;;;;;18.48;5.97;;;17.20;99.90;;;;;;7373800;19;20030;-62
2023/10/07 06:08:05;;;;;;;20.70;6.00;;;17.10;99.90;;;;;;7380525;19;20019;-67
2023/10/07 06:10:34;;;;;;;12.77;4.97;;;17.20;99.90;;;;;;7375969;19;20042;-66
2023/10/07 06:13:08;;;;;;;16.63;5.60;;;17.20;99.90;;;;;;7377269;19;20026;-65
2023/10/07 06:15:38;;;;;;;16.08;5.75;;;17.20;99.90;;;;;;7374919;19;20768;-67
2023/10/07 06:18:07;;;;;;;17.13;5.00;;;17.20;99.90;;;;;;7377091;19;20465;-66
2023/10/07 06:20:46;;;;;;;18.33;8.70;;;17.20;99.90;;;;;;7377370;19;20018;-67
2023/10/07 06:23:14;;;;;;;14.07;5.82;;;17.20;99.90;;;;;;7379660;19;20035;-67
2023/10/07 06:25:49;;;;;;;20.08;6.85;;;17.20;99.90;;;;;;7374824;19;20429;-68
2023/10/07 06:28:29;;;;;;;15.73;6.47;;;17.20;99.90;;;;;;7379366;19;20029;-66
2023/10/07 06:31:11;;;;;;;15.82;6.07;;;17.20;99.90;;;;;;7374107;19;20489;-67
2023/10/07 06:33:41;;;;;;;15.50;5.60;;;17.20;99.90;;;;;;7377956;19;20576;-63
2023/10/07 06:36:10;;;;;;;17.00;6.07;;;17.10;99.90;;;;;;7374779;19;20565;-67
2023/10/07 06:38:52;;;;;;;20.15;6.38;;;17.10;99.90;;;;;;7376446;19;20015;-66
2023/10/07 06:41:22;;;;;;;15.57;6.28;;;17.10;99.90;;;;;;7378478;19;20018;-66
2023/10/07 06:43:50;;;;;;;15.07;5.95;;;17.00;99.90;;;;;;7377058;19;20021;-67
2023/10/07 06:46:22;;;;;;;14.35;5.93;;;17.10;99.90;;;;;;7374206;19;20870;-69
2023/10/07 06:48:49;;;;;;;11.90;5.38;;;17.10;99.90;;;;;;7369363;19;20770;-69
2023/10/07 06:51:16;;;;;;;15.80;6.95;;;17.10;99.90;;;;;;7373361;19;20033;-68
2023/10/07 06:53:43;;;;;;;16.58;5.72;;;17.10;99.90;;;;;;7369792;19;20359;-68
2023/10/07 06:56:23;;;;;;;18.08;6.18;;;17.10;99.90;;;;;;7373751;19;20242;-68
2023/10/07 06:58:59;;;;;;;16.58;5.95;;;17.10;99.90;;;;;;7364130;19;20636;-68
2023/10/07 07:04:23;;;;;;;17.95;6.30;;;17.10;99.90;;;;;;7365423;19;20014;-68
2023/10/07 07:06:58;;;;;;;15.20;6.93;;;17.10;99.90;;;;;;7373482;19;20914;-67
2023/10/07 07:12:32;;;;;;;18.48;6.63;;;17.20;99.90;;;;;;7368310;19;20019;-69
2023/10/07 07:15:26;;;;;;;17.00;6.38;;;17.10;99.90;;;;;;7373021;19;21742;-68
2023/10/07 07:18:03;;;;;;;21.08;6.45;;;17.20;99.90;;;;;;7376087;19;20053;-68
2023/10/07 07:20:33;;;;;;;15.07;5.78;;;17.20;99.90;;;;;;7371345;19;20481;-68
2023/10/07 07:23:04;;;;;;;17.08;6.05;;;17.20;99.90;;;;;;7376842;19;20015;-69
2023/10/07 07:25:36;;;;;;;17.35;7.18;;;17.30;99.90;;;;;;7373704;19;20048;-69
2023/10/07 07:28:04;;;;;;;15.07;6.07;;;17.40;99.90;;;;;;7375419;19;20649;-68
2023/10/07 07:30:31;;;;;;;19.13;7.38;;;17.50;99.90;;;;;;7370721;19;20025;-68
2023/10/07 07:33:08;;;;;;;19.17;6.65;;;17.60;99.90;;;;;;7372731;19;20026;-69
2023/10/07 07:35:39;;;;;;;17.20;6.10;;;17.70;99.90;;;;;;7372616;19;20374;-68
2023/10/07 07:41:29;;;;;;;14.18;5.25;;;17.70;99.90;;;;;;7369557;19;20034;-68
2023/10/07 07:43:59;;;;;;;16.38;7.18;;;17.70;99.90;;;;;;7370465;19;20387;-68
2023/10/07 07:46:51;;;;;;;41.42;22.02;;;17.70;99.90;;;;;;7370814;19;20022;-70
2023/10/07 07:49:19;;;;;;;19.15;6.43;;;17.80;99.90;;;;;;7371676;19;20022;-69
2023/10/07 07:51:51;;;;;;;15.02;6.78;;;17.90;99.90;;;;;;7368573;19;20022;-69
2023/10/07 07:54:18;;;;;;;15.38;5.82;;;17.90;99.90;;;;;;7371485;19;20039;-70
2023/10/07 07:56:46;;;;;;;16.65;6.72;;;18.00;99.90;;;;;;7367248;19;20924;-69
2023/10/07 07:59:15;;;;;;;15.13;6.45;;;18.00;99.90;;;;;;7370155;19;20805;-69
2023/10/07 08:02:11;;;;;;;18.70;5.95;;;18.00;99.90;;;;;;7369679;19;20045;-69
2023/10/07 08:04:47;;;;;;;19.05;7.28;;;18.10;99.90;;;;;;7368361;19;20019;-67
2023/10/07 08:09:50;;;;;;;18.05;5.50;;;18.20;99.90;;;;;;7367026;19;20126;-69
2023/10/07 08:12:34;;;;;;;12.90;4.82;;;18.30;99.90;;;;;;7373184;19;20039;-68
2023/10/07 08:15:47;;;;;;;16.90;6.40;;;18.50;99.90;;;;;;7373529;19;20103;-68
2023/10/07 08:17:51;;;;;;;13.35;5.15;;;18.60;99.90;;;;;;7364205;19;20067;-69
2023/10/07 08:20:37;;;;;;;12.43;4.78;;;18.60;99.90;;;;;;7373121;19;20018;-66
2023/10/07 08:23:07;;;;;;;16.25;4.90;;;18.60;99.90;;;;;;7369495;19;20102;-68
2023/10/07 08:25:38;;;;;;;16.25;5.05;;;18.60;99.90;;;;;;7371946;19;20022;-69
2023/10/07 08:28:23;;;;;;;14.68;4.70;;;18.60;99.90;;;;;;7370153;19;20050;-69
2023/10/07 08:30:50;;;;;;;13.93;5.10;;;18.60;99.90;;;;;;7370497;19;20022;-69
2023/10/07 08:33:23;;;;;;;13.85;4.80;;;18.60;99.90;;;;;;7368205;19;20584;-69
2023/10/07 08:35:53;;;;;;;18.23;4.53;;;18.50;99.90;;;;;;7371028;19;20018;-70
2023/10/07 08:38:38;;;;;;;11.65;4.55;;;18.40;99.90;;;;;;7371575;19;20493;-69
2023/10/07 08:41:05;;;;;;;15.82;5.47;;;18.50;99.90;;;;;;7368144;19;20122;-66
2023/10/07 08:43:38;;;;;;;11.52;4.43;;;18.50;99.90;;;;;;7366541;19;20063;-67
2023/10/07 08:46:09;;;;;;;22.33;5.63;;;18.60;99.90;;;;;;7371624;19;20098;-69
2023/10/07 08:48:39;;;;;;;13.85;5.68;;;18.50;99.90;;;;;;7370355;19;20026;-70
2023/10/07 08:51:14;;;;;;;14.43;4.85;;;18.50;99.90;;;;;;7369467;19;20033;-68
2023/10/07 08:53:41;;;;;;;11.65;5.07;;;18.40;99.90;;;;;;7375559;19;20010;-69
2023/10/07 08:56:12;;;;;;;17.08;5.28;;;18.40;99.90;;;;;;7376277;19;20081;-69
2023/10/07 08:58:41;;;;;;;16.02;4.47;;;18.40;99.90;;;;;;7380875;19;20378;-68
2023/10/07 09:01:17;;;;;;;16.63;5.13;;;18.40;99.90;;;;;;7379962;19;20032;-70
2023/10/07 09:03:49;;;;;;;13.98;4.60;;;18.40;99.90;;;;;;7380425;19;20030;-70
2023/10/07 09:06:16;;;;;;;14.10;5.60;;;18.50;99.90;;;;;;7377825;19;20018;-71
2023/10/07 09:08:46;;;;;;;9.75;3.97;;;18.60;99.90;;;;;;7376054;19;20018;-68
2023/10/07 09:11:19;;;;;;;15.48;5.28;;;18.70;99.90;;;;;;7380097;19;20045;-70
2023/10/07 09:13:47;;;;;;;16.15;4.80;;;18.80;99.90;;;;;;7375884;19;20023;-70
2023/10/07 09:16:13;;;;;;;15.80;5.13;;;18.90;99.90;;;;;;7377701;19;20026;-70
2023/10/07 09:18:55;;;;;;;12.27;4.65;;;18.90;99.90;;;;;;7375592;19;20018;-70
2023/10/07 09:21:22;;;;;;;12.27;4.63;;;19.00;99.90;;;;;;7375315;19;20493;-70
2023/10/07 09:23:58;;;;;;;14.15;4.72;;;19.00;99.90;;;;;;7377916;19;20015;-67
2023/10/07 09:26:36;;;;;;;14.73;5.13;;;19.20;99.90;;;;;;7377928;19;20540;-70
2023/10/07 09:31:39;;;;;;;15.20;6.30;;;19.40;99.90;;;;;;7378062;19;20026;-70
2023/10/07 09:34:10;;;;;;;15.02;4.38;;;19.40;99.90;;;;;;7379258;19;20015;-70
2023/10/07 09:36:40;;;;;;;13.35;4.78;;;19.50;99.90;;;;;;7376843;19;20634;-69
2023/10/07 09:41:39;;;;;;;14.90;4.18;;;19.60;99.90;;;;;;7377952;19;20904;-68
2023/10/07 09:46:52;;;;;;;12.75;4.53;;;19.70;99.90;;;;;;7379697;19;20018;-70
2023/10/07 09:49:25;;;;;;;13.15;4.05;;;19.70;99.90;;;;;;7380091;19;20027;-70
2023/10/07 09:52:15;;;;;;;16.95;5.20;;;19.70;99.90;;;;;;7376209;19;20090;-68
2023/10/07 09:55:19;;;;;;;15.85;4.90;;;19.60;99.90;;;;;;7382132;19;20085;-65
2023/10/07 09:58:17;;;;;;;12.38;4.28;;;19.60;99.90;;;;;;7377049;19;20026;-65
2023/10/07 10:01:08;;;;;;;11.85;4.47;;;19.60;99.90;;;;;;7380110;19;20010;-66
2023/10/07 10:04:05;;;;;;;13.55;4.22;;;19.70;99.90;;;;;;7377530;19;20505;-68
2023/10/07 10:06:53;;;;;;;11.18;5.30;;;19.70;99.90;;;;;;7375544;19;20859;-66
2023/10/07 10:09:24;;;;;;;14.68;4.63;;;19.70;99.90;;;;;;7378867;19;20015;-69
2023/10/07 10:14:56;;;;;;;11.77;4.32;;;19.60;99.90;;;;;;7377099;19;20648;-68
2023/10/07 10:17:48;;;;;;;15.48;4.78;;;19.60;99.90;;;;;;7377075;19;20018;-65
2023/10/07 10:20:18;;;;;;;13.43;4.45;;;19.50;99.90;;;;;;7376415;19;20050;-66
2023/10/07 10:22:59;;;;;;;16.58;4.93;;;19.40;99.90;;;;;;7376281;19;20014;-66
2023/10/07 10:28:06;;;;;;;13.40;5.18;;;19.30;99.90;;;;;;7376221;19;20350;-66
2023/10/07 10:30:33;;;;;;;12.23;4.82;;;19.30;99.90;;;;;;7378442;19;20022;-66
2023/10/07 10:33:08;;;;;;;15.98;5.28;;;19.40;99.90;;;;;;7378756;19;20025;-68
2023/10/07 10:35:40;;;;;;;14.32;4.20;;;19.50;99.90;;;;;;7376327;19;20018;-67
2023/10/07 10:38:09;;;;;;;14.48;4.88;;;19.60;99.90;;;;;;7374851;19;20014;-67
2023/10/07 10:40:39;;;;;;;11.38;4.30;;;19.60;99.90;;;;;;7375291;19;20394;-67
2023/10/07 10:43:05;;;;;;;14.90;4.68;;;19.80;99.90;;;;;;7376947;19;20022;-68
2023/10/07 10:45:32;;;;;;;17.48;5.40;;;20.00;99.90;;;;;;7377791;19;20007;-67
2023/10/07 10:47:59;;;;;;;16.80;5.97;;;20.10;99.90;;;;;;7379519;19;20022;-68
2023/10/07 10:50:29;;;;;;;17.15;5.55;;;20.20;99.90;;;;;;7377870;19;20018;-68
2023/10/07 10:52:56;;;;;;;11.98;4.65;;;20.30;99.90;;;;;;7377235;19;20018;-68
2023/10/07 10:55:24;;;;;;;17.95;6.40;;;20.40;99.90;;;;;;7377310;19;20857;-68
2023/10/07 10:57:53;;;;;;;15.45;5.35;;;20.70;99.90;;;;;;7375719;19;20469;-67
2023/10/07 11:00:23;;;;;;;14.98;5.40;;;20.80;99.90;;;;;;7376184;19;20477;-68
2023/10/07 11:02:50;;;;;;;13.35;5.28;;;20.70;99.90;;;;;;7377286;19;20025;-68
2023/10/07 11:05:17;;;;;;;16.60;5.03;;;20.70;99.90;;;;;;7377252;19;20041;-68
2023/10/07 11:07:47;;;;;;;12.63;5.05;;;20.60;99.90;;;;;;7376016;19;20019;-68
2023/10/07 11:10:23;;;;;;;15.45;5.72;;;20.60;99.90;;;;;;7376985;19;20019;-68
2023/10/07 11:12:56;;;;;;;14.27;4.43;;;20.60;99.90;;;;;;7373246;19;20018;-67
2023/10/07 11:15:26;;;;;;;16.90;5.85;;;20.60;99.90;;;;;;7375679;19;20078;-67
2023/10/07 11:17:58;;;;;;;16.77;5.50;;;20.60;99.90;;;;;;7374623;19;20018;-67
2023/10/07 11:20:32;;;;;;;14.75;5.55;;;20.40;99.90;;;;;;7378095;19;20415;-65
2023/10/07 11:22:59;;;;;;;15.05;5.63;;;20.30;99.90;;;;;;7376497;19;20803;-66
2023/10/07 11:25:28;;;;;;;19.42;5.90;;;20.30;99.90;;;;;;7378373;19;20015;-66
2023/10/07 11:27:54;;;;;;;14.30;5.60;;;20.30;99.90;;;;;;7376605;19;20027;-66
2023/10/07 11:30:22;;;;;;;13.70;4.97;;;20.10;99.90;;;;;;7378620;19;20074;-66
2023/10/07 11:32:48;;;;;;;17.92;5.45;;;20.20;99.90;;;;;;7375807;19;20010;-68
2023/10/07 11:35:27;;;;;;;14.10;5.22;;;20.70;99.90;;;;;;7374431;19;20074;-68
2023/10/07 11:37:57;;;;;;;19.48;5.57;;;20.70;99.90;;;;;;7375422;19;20022;-64
2023/10/07 11:40:27;;;;;;;16.45;4.85;;;20.70;99.90;;;;;;7375693;19;20014;-67
2023/10/07 11:42:54;;;;;;;20.35;6.22;;;20.60;99.90;;;;;;7372678;19;20046;-67
2023/10/07 11:45:23;;;;;;;13.98;5.28;;;20.40;99.90;;;;;;7369181;19;20098;-68
2023/10/07 11:47:50;;;;;;;16.30;5.50;;;20.30;99.90;;;;;;7369839;19;20378;-67
2023/10/07 11:50:16;;;;;;;14.77;5.55;;;20.10;99.90;;;;;;7373915;19;20022;-67
2023/10/07 11:52:43;;;;;;;11.63;5.88;;;20.10;99.90;;;;;;7369607;19;20466;-67
2023/10/07 11:55:09;;;;;;;19.83;6.00;;;20.00;99.90;;;;;;7372269;19;20330;-67
2023/10/07 11:57:37;;;;;;;15.18;5.72;;;20.00;99.90;;;;;;7369412;19;20018;-67
2023/10/07 12:00:09;;;;;;;16.88;6.10;;;20.10;99.90;;;;;;7372799;19;20018;-68
2023/10/07 12:02:39;;;;;;;12.98;5.32;;;20.40;99.90;;;;;;7371304;19;20094;-67
2023/10/07 12:05:06;;;;;;;13.45;4.65;;;21.40;99.90;;;;;;7371309;19;20520;-66
2023/10/07 12:07:36;;;;;;;17.20;5.57;;;22.40;99.90;;;;;;7368649;19;20014;-67
2023/10/07 12:10:06;;;;;;;18.27;5.72;;;22.70;99.90;;;;;;7375300;19;20022;-66
2023/10/07 12:12:32;;;;;;;13.75;5.07;;;22.60;99.90;;;;;;7371096;19;20027;-66
2023/10/07 12:14:59;;;;;;;17.50;5.57;;;23.10;99.90;;;;;;7373380;19;20715;-65
2023/10/07 12:17:25;;;;;;;11.05;5.10;;;23.20;99.90;;;;;;7370295;19;20015;-64
2023/10/07 12:19:51;;;;;;;14.15;5.50;;;23.90;99.90;;;;;;7375240;19;20895;-65
2023/10/07 12:22:18;;;;;;;12.35;6.10;;;23.90;99.90;;;;;;7375676;19;20054;-64
2023/10/07 12:24:44;;;;;;;14.13;5.90;;;23.30;99.90;;;;;;7374852;19;20015;-64
2023/10/07 12:27:10;;;;;;;11.93;4.97;;;22.70;99.90;;;;;;7374621;19;20018;-65
2023/10/07 12:29:38;;;;;;;20.20;7.60;;;22.20;99.90;;;;;;7383289;19;20090;-64
2023/10/07 12:32:05;;;;;;;16.42;5.65;;;21.90;99.90;;;;;;7383563;19;20149;-64
2023/10/07 12:34:32;;;;;;;17.45;5.90;;;21.70;99.90;;;;;;7380868;19;20054;-64
2023/10/07 12:36:58;;;;;;;17.50;6.18;;;21.50;99.90;;;;;;7379616;19;20022;-65
2023/10/07 12:39:30;;;;;;;15.32;5.90;;;21.80;99.90;;;;;;7379832;19;20370;-71
2023/10/07 12:41:56;;;;;;;20.33;12.15;;;21.90;99.90;;;;;;7377281;19;20055;-65
2023/10/07 12:44:25;;;;;;;15.82;8.48;;;22.20;99.90;;;;;;7376617;19;20568;-65
2023/10/07 12:46:54;;;;;;;16.10;7.25;;;22.10;99.90;;;;;;7380092;19;20046;-65
2023/10/07 12:49:23;;;;;;;21.63;13.82;;;22.10;99.90;;;;;;7376442;19;20018;-66
2023/10/07 12:51:49;;;;;;;11.80;5.30;;;22.60;99.90;;;;;;7378683;19;20018;-67
2023/10/07 12:54:17;;;;;;;16.67;5.82;;;23.60;99.90;;;;;;7374741;19;20406;-65
2023/10/07 12:56:43;;;;;;;17.55;8.05;;;24.50;99.90;;;;;;7377403;19;20018;-64
2023/10/07 12:59:18;;;;;;;22.65;14.25;;;24.90;99.90;;;;;;7379313;19;20456;-64
2023/10/07 13:01:50;;;;;;;25.08;13.30;;;24.80;99.90;;;;;;7379212;19;20046;-63
2023/10/07 13:04:25;;;;;;;12.75;5.50;;;24.80;99.90;;;;;;7375648;19;20034;-63
2023/10/07 13:07:00;;;;;;;21.70;12.80;;;24.30;99.90;;;;;;7375562;19;20054;-63
2023/10/07 13:09:31;;;;;;;25.45;14.07;;;24.20;99.90;;;;;;7378645;19;20679;-63
2023/10/07 13:11:58;;;;;;;22.90;13.77;;;24.30;99.90;;;;;;7374245;19;20735;-64
2023/10/07 13:14:26;;;;;;;19.42;6.53;;;23.60;99.90;;;;;;7379577;19;20379;-64
2023/10/07 13:16:57;;;;;;;19.50;10.50;;;23.50;99.90;;;;;;7373465;19;20014;-64
2023/10/07 13:19:27;;;;;;;15.82;5.75;;;23.20;99.90;;;;;;7377155;19;20136;-64
2023/10/07 13:22:01;;;;;;;16.40;8.38;;;22.80;99.90;;;;;;7379545;19;20015;-63
2023/10/07 13:24:29;;;;;;;16.27;7.20;;;22.30;99.90;;;;;;7372279;19;20026;-68
2023/10/07 13:27:04;;;;;;;15.52;6.13;;;22.00;99.90;;;;;;7374221;19;20754;-64
2023/10/07 13:29:34;;;;;;;14.18;4.80;;;21.60;99.90;;;;;;7380804;19;20035;-67
2023/10/07 13:32:04;;;;;;;11.30;4.65;;;21.50;99.90;;;;;;7376753;19;20059;-66
2023/10/07 13:34:37;;;;;;;11.63;5.57;;;21.30;99.90;;;;;;7377801;19;20027;-63
2023/10/07 13:37:06;;;;;;;15.52;4.75;;;21.20;99.90;;;;;;7374246;19;20457;-66
2023/10/07 13:39:32;;;;;;;26.05;17.27;;;21.10;99.90;;;;;;7378695;19;20048;-63
2023/10/07 13:42:00;;;;;;;17.27;9.05;;;20.90;99.90;;;;;;7375016;19;20055;-64
2023/10/07 13:44:26;;;;;;;13.43;6.45;;;20.80;99.90;;;;;;7379467;19;20026;-63
2023/10/07 13:46:54;;;;;;;14.70;5.50;;;20.60;99.90;;;;;;7377730;19;20528;-63
2023/10/07 13:49:21;;;;;;;12.23;5.35;;;20.60;99.90;;;;;;7377819;19;20023;-66
2023/10/07 13:51:51;;;;;;;16.23;7.85;;;20.60;99.90;;;;;;7376232;19;20019;-66
2023/10/07 13:54:38;;;;;;;10.68;4.18;;;20.50;99.90;;;;;;7379301;19;20789;-67